Welcome to Hicks Airfield

Driving Safety »



  • Current KAFW METAR
    (5.8nm NE) MVFR
    KAFW 030353Z 17015KT 10SM BKN016 OVC065 19/16 A2986 RMK AO2 SLP105 T01890161
  • Flappings Newsletter
    The official newsletter of HAPA.
    Read »
  • Property Owner's Portal
    Create an account on our new secure portal for access to secure documents.
    Log-in »